createdAt,value
2022-08-28T00:00:30.671Z,97420.00
2022-08-28T00:02:58.658Z,97419.00
2022-08-28T00:05:30.421Z,97426.00
2022-08-28T00:07:59.041Z,97427.00
2022-08-28T00:10:30.450Z,97426.00
2022-08-28T00:12:58.226Z,97416.00
2022-08-28T00:15:36.747Z,97415.00
2022-08-28T00:18:06.422Z,97418.00
2022-08-28T00:20:35.590Z,97429.00
2022-08-28T00:23:04.020Z,97425.00
2022-08-28T00:25:33.182Z,97429.00
2022-08-28T00:28:09.135Z,97425.00
2022-08-28T00:30:51.093Z,97425.00
2022-08-28T00:33:27.420Z,97426.00
2022-08-28T00:35:55.675Z,97420.00
2022-08-28T00:38:25.721Z,97429.00
2022-08-28T00:40:57.845Z,97427.00
2022-08-28T00:43:34.934Z,97431.00
2022-08-28T00:46:06.040Z,97429.00
2022-08-28T00:48:33.660Z,97432.00
2022-08-28T00:51:20.983Z,97425.00
2022-08-28T00:53:48.702Z,97431.00
2022-08-28T00:56:18.863Z,97421.00
2022-08-28T00:58:48.445Z,97429.00
2022-08-28T01:01:16.107Z,97433.00
2022-08-28T01:03:44.863Z,97430.00
2022-08-28T01:06:15.749Z,97431.00
2022-08-28T01:08:50.447Z,97431.00
2022-08-28T01:11:19.224Z,97426.00
2022-08-28T01:13:48.806Z,97429.00
2022-08-28T01:16:18.930Z,97423.00
2022-08-28T01:18:47.645Z,97418.00
2022-08-28T01:21:29.632Z,97422.00
2022-08-28T01:24:17.081Z,97412.00
2022-08-28T01:26:44.470Z,97415.00
2022-08-28T01:29:12.845Z,97414.00
2022-08-28T01:31:41.761Z,97411.00
2022-08-28T01:34:13.146Z,97415.00
2022-08-28T01:36:41.299Z,97414.00
2022-08-28T01:39:18.562Z,97416.00
2022-08-28T01:41:53.200Z,97412.00
2022-08-28T01:44:25.327Z,97413.00
2022-08-28T01:46:55.530Z,97419.00
2022-08-28T01:49:24.831Z,97421.00
2022-08-28T01:51:52.383Z,97419.00
2022-08-28T01:54:22.300Z,97427.00
2022-08-28T01:59:27.441Z,97423.00
2022-08-28T02:01:55.374Z,97423.00
2022-08-28T02:04:25.892Z,97429.00
2022-08-28T02:07:00.182Z,97431.00
2022-08-28T02:09:27.413Z,97429.00
2022-08-28T02:11:55.014Z,97425.00
2022-08-28T02:14:22.708Z,97425.00
2022-08-28T02:16:51.241Z,97426.00
2022-08-28T02:19:18.521Z,97423.00
2022-08-28T02:21:45.850Z,97424.00
2022-08-28T02:24:13.138Z,97424.00
2022-08-28T02:26:40.415Z,97427.00
2022-08-28T02:29:07.665Z,97423.00
2022-08-28T02:31:35.244Z,97425.00
2022-08-28T02:34:02.471Z,97430.00
2022-08-28T02:36:30.147Z,97425.00
2022-08-28T02:38:57.984Z,97425.00
2022-08-28T02:41:26.046Z,97421.00
2022-08-28T02:43:53.418Z,97416.00
2022-08-28T02:46:20.734Z,97417.00
2022-08-28T02:48:48.032Z,97414.00
2022-08-28T02:51:15.361Z,97418.00
2022-08-28T02:53:43.544Z,97412.00
2022-08-28T02:56:11.004Z,97414.00
2022-08-28T02:58:40.461Z,97418.00
2022-08-28T03:01:11.461Z,97412.00
2022-08-28T03:03:40.914Z,97419.00
2022-08-28T03:06:12.212Z,97416.00
2022-08-28T03:08:42.009Z,97408.00
2022-08-28T03:11:09.600Z,97419.00
2022-08-28T03:13:36.863Z,97413.00
2022-08-28T03:16:05.156Z,97411.00
2022-08-28T03:18:33.325Z,97410.00
2022-08-28T03:21:00.952Z,97421.00
2022-08-28T03:23:28.479Z,97423.00
2022-08-28T03:26:00.185Z,97413.00
2022-08-28T03:28:41.388Z,97413.00
2022-08-28T03:31:18.157Z,97413.00
2022-08-28T03:33:46.811Z,97408.00
2022-08-28T03:36:21.552Z,97419.00
2022-08-28T03:38:51.001Z,97417.00
2022-08-28T03:41:21.684Z,97424.00
2022-08-28T03:43:49.458Z,97423.00
2022-08-28T03:46:21.063Z,97430.00
2022-08-28T03:48:48.497Z,97428.00
2022-08-28T03:51:27.978Z,97432.00
2022-08-28T03:54:00.294Z,97435.00
2022-08-28T03:56:30.571Z,97443.00
2022-08-28T03:59:01.164Z,97442.00
2022-08-28T04:01:29.277Z,97443.00
2022-08-28T04:03:57.173Z,97440.00
2022-08-28T04:06:24.644Z,97445.00
2022-08-28T04:08:51.751Z,97453.00
2022-08-28T04:11:19.108Z,97448.00
2022-08-28T04:13:46.731Z,97455.00
2022-08-28T04:16:19.149Z,97453.00
2022-08-28T04:18:49.109Z,97453.00
2022-08-28T04:21:22.526Z,97457.00
2022-08-28T04:23:50.483Z,97456.00
2022-08-28T04:26:21.831Z,97455.00
2022-08-28T04:28:50.531Z,97457.00
2022-08-28T04:31:31.819Z,97463.00
2022-08-28T04:34:02.000Z,97466.00
2022-08-28T04:36:29.903Z,97466.00
2022-08-28T04:38:58.900Z,97465.00
2022-08-28T04:41:26.787Z,97468.00
2022-08-28T04:43:56.877Z,97464.00
2022-08-28T04:46:24.909Z,97465.00
2022-08-28T04:48:52.263Z,97460.00
2022-08-28T04:51:20.429Z,97461.00
2022-08-28T04:53:48.167Z,97465.00
2022-08-28T04:56:16.010Z,97465.00
2022-08-28T04:58:44.376Z,97468.00
2022-08-28T05:01:19.385Z,97465.00
2022-08-28T05:03:48.663Z,97468.00
2022-08-28T05:06:17.141Z,97465.00
2022-08-28T05:08:44.627Z,97464.00
2022-08-28T05:11:33.708Z,97461.00
2022-08-28T05:14:06.498Z,97461.00
2022-08-28T05:16:43.122Z,97470.00
2022-08-28T05:19:10.789Z,97476.00
2022-08-28T05:21:38.830Z,97470.00
2022-08-28T05:24:07.406Z,97478.00
2022-08-28T05:26:36.308Z,97474.00
2022-08-28T05:29:08.747Z,97479.00
2022-08-28T05:31:39.111Z,97478.00
2022-08-28T05:34:07.063Z,97468.00
2022-08-28T05:36:38.522Z,97480.00
2022-08-28T05:39:10.277Z,97485.00
2022-08-28T05:41:40.881Z,97484.00
2022-08-28T05:44:12.670Z,97486.00
2022-08-28T05:46:43.145Z,97488.00
2022-08-28T05:49:10.846Z,97489.00
2022-08-28T05:51:42.070Z,97488.00
2022-08-28T05:54:10.370Z,97489.00
2022-08-28T05:56:40.641Z,97486.00
2022-08-28T05:59:09.672Z,97490.00
2022-08-28T06:01:42.795Z,97497.00
2022-08-28T06:04:15.456Z,97493.00
2022-08-28T06:06:44.196Z,97500.00
2022-08-28T06:09:18.056Z,97497.00
2022-08-28T06:11:46.385Z,97499.00
2022-08-28T06:14:17.920Z,97503.00
2022-08-28T06:16:52.600Z,97511.00
2022-08-28T06:19:23.167Z,97496.00
2022-08-28T06:21:54.379Z,97503.00
2022-08-28T06:24:21.605Z,97505.00
2022-08-28T06:26:48.750Z,97510.00
2022-08-28T06:29:21.231Z,97511.00
2022-08-28T06:31:58.779Z,97500.00
2022-08-28T06:34:28.053Z,97500.00
2022-08-28T06:36:55.471Z,97511.00
2022-08-28T06:39:24.110Z,97509.00
2022-08-28T06:41:51.419Z,97511.00
2022-08-28T06:44:21.503Z,97512.00
2022-08-28T06:46:52.368Z,97516.00
2022-08-28T06:49:21.990Z,97515.00
2022-08-28T06:51:49.592Z,97513.00
2022-08-28T06:54:22.235Z,97510.00
2022-08-28T06:56:52.002Z,97523.00
2022-08-28T06:59:19.586Z,97522.00
2022-08-28T07:01:48.398Z,97533.00
2022-08-28T07:04:15.797Z,97532.00
2022-08-28T07:06:53.864Z,97527.00
2022-08-28T07:09:23.326Z,97531.00
2022-08-28T07:11:51.435Z,97533.00
2022-08-28T07:14:18.718Z,97529.00
2022-08-28T07:16:46.087Z,97533.00
2022-08-28T07:19:14.265Z,97540.00
2022-08-28T07:21:44.714Z,97539.00
2022-08-28T07:24:14.847Z,97534.00
2022-08-28T07:26:44.449Z,97539.00
2022-08-28T07:29:12.406Z,97538.00
2022-08-28T07:31:46.579Z,97533.00
2022-08-28T07:34:15.707Z,97539.00
2022-08-28T07:36:43.879Z,97538.00
2022-08-28T07:39:14.088Z,97544.00
2022-08-28T07:41:43.150Z,97548.00
2022-08-28T07:44:32.996Z,97552.00
2022-08-28T07:47:06.134Z,97551.00
2022-08-28T07:49:37.064Z,97545.00
2022-08-28T07:52:07.038Z,97549.00
2022-08-28T07:54:36.274Z,97556.00
2022-08-28T07:57:10.074Z,97556.00
2022-08-28T07:59:39.183Z,97553.00
2022-08-28T08:02:07.193Z,97556.00
2022-08-28T08:04:35.320Z,97559.00
2022-08-28T08:07:04.358Z,97565.00
2022-08-28T08:09:32.304Z,97576.00
2022-08-28T08:12:00.493Z,97564.00
2022-08-28T08:14:28.122Z,97570.00
2022-08-28T08:16:55.189Z,97564.00
2022-08-28T08:19:22.644Z,97572.00
2022-08-28T08:21:54.923Z,97567.00
2022-08-28T08:24:26.826Z,97563.00
2022-08-28T08:27:00.959Z,97576.00
2022-08-28T08:29:36.266Z,97575.00
2022-08-28T08:32:10.507Z,97577.00
2022-08-28T08:34:43.182Z,97574.00
2022-08-28T08:37:12.757Z,97579.00
2022-08-28T08:39:43.386Z,97577.00
2022-08-28T08:42:28.455Z,97585.00
2022-08-28T08:45:00.041Z,97590.00
2022-08-28T08:47:43.510Z,97582.00
2022-08-28T08:50:20.997Z,97588.00
2022-08-28T08:53:09.625Z,97590.00
2022-08-28T08:55:48.406Z,97587.00
2022-08-28T08:58:38.746Z,97591.00
2022-08-28T09:01:21.191Z,97590.00
2022-08-28T09:04:16.746Z,97595.00
2022-08-28T09:07:03.290Z,97595.00
2022-08-28T09:09:33.788Z,97596.00
2022-08-28T09:12:10.599Z,97593.00
2022-08-28T09:15:06.000Z,97601.00
2022-08-28T09:17:41.529Z,97597.00
2022-08-28T09:20:14.062Z,97599.00
2022-08-28T09:22:47.509Z,97608.00
2022-08-28T09:25:50.845Z,97598.00
2022-08-28T09:28:36.872Z,97594.00
2022-08-28T09:31:19.507Z,97603.00
2022-08-28T09:33:51.429Z,97598.00
2022-08-28T09:36:36.262Z,97597.00
2022-08-28T09:39:25.673Z,97607.00
2022-08-28T09:42:41.843Z,97602.00
2022-08-28T09:45:23.865Z,97603.00
2022-08-28T09:47:55.579Z,97606.00
2022-08-28T09:50:39.652Z,97605.00
2022-08-28T09:53:09.800Z,97605.00
2022-08-28T09:55:56.766Z,97604.00
2022-08-28T09:58:35.723Z,97599.00
2022-08-28T10:01:14.252Z,97609.00
2022-08-28T10:04:08.177Z,97612.00
2022-08-28T10:06:38.052Z,97608.00
2022-08-28T10:09:05.401Z,97613.00
2022-08-28T10:12:01.965Z,97615.00
2022-08-28T10:15:08.367Z,97604.00
2022-08-28T10:18:32.953Z,97616.00
2022-08-28T10:21:25.936Z,97625.00
2022-08-28T10:24:24.739Z,97632.00
2022-08-28T10:27:19.377Z,97625.00
2022-08-28T10:29:49.955Z,97620.00
2022-08-28T10:33:07.714Z,97617.00
2022-08-28T10:36:03.853Z,97626.00
2022-08-28T10:39:40.937Z,97615.00
2022-08-28T10:42:08.079Z,97617.00
2022-08-28T10:44:49.743Z,97622.00
2022-08-28T10:47:21.500Z,97622.00
2022-08-28T10:49:53.705Z,97622.00
2022-08-28T10:52:41.956Z,97620.00
2022-08-28T10:55:19.758Z,97626.00
2022-08-28T10:57:57.932Z,97621.00
2022-08-28T11:00:27.926Z,97624.00
2022-08-28T11:03:05.108Z,97625.00
2022-08-28T11:05:53.348Z,97635.00
2022-08-28T11:08:33.454Z,97633.00
2022-08-28T11:11:04.446Z,97637.00
2022-08-28T11:13:45.939Z,97638.00
2022-08-28T11:16:42.232Z,97639.00
2022-08-28T11:19:32.171Z,97650.00
2022-08-28T11:22:27.436Z,97643.00
2022-08-28T11:25:26.287Z,97653.00
2022-08-28T11:28:23.984Z,97655.00
2022-08-28T11:31:06.329Z,97658.00
2022-08-28T11:33:48.470Z,97649.00
2022-08-28T11:36:19.164Z,97647.00
2022-08-28T11:38:46.879Z,97653.00
2022-08-28T11:41:22.759Z,97653.00
2022-08-28T11:44:09.679Z,97652.00
2022-08-28T11:46:42.506Z,97650.00
2022-08-28T11:49:34.010Z,97650.00
2022-08-28T11:52:25.402Z,97656.00
2022-08-28T11:55:20.710Z,97648.00
2022-08-28T12:00:57.979Z,97663.00
2022-08-28T12:03:41.838Z,97662.00
2022-08-28T12:06:10.742Z,97659.00
2022-08-28T12:08:59.181Z,97659.00
2022-08-28T12:11:41.853Z,97652.00
2022-08-28T12:14:27.970Z,97652.00
2022-08-28T12:17:05.921Z,97656.00
2022-08-28T12:19:51.210Z,97651.00
2022-08-28T12:22:37.661Z,97659.00
2022-08-28T12:25:15.915Z,97657.00
2022-08-28T12:27:43.610Z,97657.00
2022-08-28T12:30:12.237Z,97664.00
2022-08-28T12:32:57.178Z,97655.00
2022-08-28T12:35:29.877Z,97660.00
2022-08-28T12:37:57.456Z,97662.00
2022-08-28T12:40:42.873Z,97658.00
2022-08-28T12:43:15.183Z,97652.00
2022-08-28T12:45:50.678Z,97659.00
2022-08-28T12:48:29.718Z,97662.00
2022-08-28T12:51:08.114Z,97653.00
2022-08-28T12:53:50.853Z,97655.00
2022-08-28T12:56:22.071Z,97658.00
2022-08-28T12:58:50.819Z,97658.00
2022-08-28T13:01:34.240Z,97656.00
2022-08-28T13:04:27.663Z,97662.00
2022-08-28T13:07:18.400Z,97651.00
2022-08-28T13:09:52.649Z,97656.00
2022-08-28T13:12:34.847Z,97655.00
2022-08-28T13:15:46.886Z,97651.00
2022-08-28T13:18:44.152Z,97655.00
2022-08-28T13:21:28.645Z,97660.00
2022-08-28T13:24:24.056Z,97657.00
2022-08-28T13:27:17.256Z,97653.00
2022-08-28T13:30:20.158Z,97644.00
2022-08-28T13:33:17.642Z,97654.00
2022-08-28T13:35:45.252Z,97649.00
2022-08-28T13:38:19.683Z,97650.00
2022-08-28T13:41:04.450Z,97645.00
2022-08-28T13:43:46.154Z,97651.00
2022-08-28T13:46:14.161Z,97648.00
2022-08-28T13:48:41.256Z,97645.00
2022-08-28T13:51:14.255Z,97650.00
2022-08-28T13:53:49.713Z,97649.00
2022-08-28T13:56:17.551Z,97659.00
2022-08-28T13:58:44.849Z,97656.00
2022-08-28T14:01:30.622Z,97654.00
2022-08-28T14:04:07.854Z,97659.00
2022-08-28T14:06:34.960Z,97660.00
2022-08-28T14:09:02.204Z,97667.00
2022-08-28T14:11:29.498Z,97673.00
2022-08-28T14:13:56.763Z,97668.00
2022-08-28T14:16:25.543Z,97663.00
2022-08-28T14:18:53.819Z,97671.00
2022-08-28T14:21:22.360Z,97671.00
2022-08-28T14:23:50.570Z,97667.00
2022-08-28T14:26:17.729Z,97666.00
2022-08-28T14:28:45.292Z,97663.00
2022-08-28T14:31:14.778Z,97661.00
2022-08-28T14:33:45.370Z,97662.00
2022-08-28T14:36:27.349Z,97664.00
2022-08-28T14:39:01.750Z,97669.00
2022-08-28T14:41:31.369Z,97662.00
2022-08-28T14:44:01.196Z,97659.00
2022-08-28T14:46:31.821Z,97662.00
2022-08-28T14:49:10.003Z,97658.00
2022-08-28T14:51:39.848Z,97657.00
2022-08-28T14:54:08.755Z,97663.00
2022-08-28T14:56:45.612Z,97663.00
2022-08-28T14:59:25.368Z,97660.00
2022-08-28T15:01:55.624Z,97652.00
2022-08-28T15:04:28.473Z,97661.00
2022-08-28T15:07:00.771Z,97659.00
2022-08-28T15:09:28.665Z,97664.00
2022-08-28T15:11:56.369Z,97659.00
2022-08-28T15:14:23.932Z,97664.00
2022-08-28T15:16:51.200Z,97663.00
2022-08-28T15:19:18.922Z,97663.00
2022-08-28T15:21:53.776Z,97663.00
2022-08-28T15:24:25.780Z,97662.00
2022-08-28T15:26:53.615Z,97664.00
2022-08-28T15:29:21.171Z,97668.00
2022-08-28T15:31:49.638Z,97668.00
2022-08-28T15:34:25.468Z,97673.00
2022-08-28T15:36:56.059Z,97682.00
2022-08-28T15:39:47.433Z,97680.00
2022-08-28T15:42:15.645Z,97673.00
2022-08-28T15:44:43.688Z,97668.00
2022-08-28T15:47:12.633Z,97671.00
2022-08-28T15:49:48.560Z,97673.00
2022-08-28T15:52:18.803Z,97677.00
2022-08-28T15:54:46.544Z,97679.00
2022-08-28T15:57:13.795Z,97679.00
2022-08-28T15:59:49.859Z,97674.00
2022-08-28T16:02:24.155Z,97683.00
2022-08-28T16:04:53.145Z,97676.00
2022-08-28T16:07:22.968Z,97689.00
2022-08-28T16:09:50.820Z,97693.00
2022-08-28T16:12:18.376Z,97698.00
2022-08-28T16:14:45.619Z,97692.00
2022-08-28T16:17:13.209Z,97682.00
2022-08-28T16:19:42.333Z,97695.00
2022-08-28T16:22:11.666Z,97687.00
2022-08-28T16:24:39.025Z,97687.00
2022-08-28T16:27:08.706Z,97693.00
2022-08-28T16:29:38.108Z,97686.00
2022-08-28T16:32:07.026Z,97689.00
2022-08-28T16:34:34.991Z,97691.00
2022-08-28T16:37:04.250Z,97695.00
2022-08-28T16:39:31.356Z,97684.00
2022-08-28T16:41:59.086Z,97695.00
2022-08-28T16:44:26.779Z,97693.00
2022-08-28T16:46:55.898Z,97689.00
2022-08-28T16:49:24.080Z,97693.00
2022-08-28T16:51:51.843Z,97706.00
2022-08-28T16:54:19.509Z,97694.00
2022-08-28T16:56:46.869Z,97695.00
2022-08-28T16:59:21.549Z,97699.00
2022-08-28T17:01:53.663Z,97693.00
2022-08-28T17:04:22.587Z,97693.00
2022-08-28T17:06:50.108Z,97693.00
2022-08-28T17:09:17.501Z,97691.00
2022-08-28T17:11:52.130Z,97698.00
2022-08-28T17:14:21.815Z,97703.00
2022-08-28T17:16:50.752Z,97706.00
2022-08-28T17:19:19.432Z,97708.00
2022-08-28T17:22:05.419Z,97712.00
2022-08-28T17:24:32.672Z,97715.00
2022-08-28T17:27:05.213Z,97715.00
2022-08-28T17:29:34.729Z,97718.00
2022-08-28T17:32:02.320Z,97720.00
2022-08-28T17:34:30.527Z,97722.00
2022-08-28T17:36:58.153Z,97712.00
2022-08-28T17:39:25.694Z,97722.00
2022-08-28T17:41:52.803Z,97719.00
2022-08-28T17:44:20.177Z,97733.00
2022-08-28T17:46:47.463Z,97730.00
2022-08-28T17:49:14.650Z,97730.00
2022-08-28T17:51:43.458Z,97729.00
2022-08-28T17:54:21.550Z,97735.00
2022-08-28T17:56:50.217Z,97741.00
2022-08-28T17:59:18.173Z,97733.00
2022-08-28T18:01:46.934Z,97745.00
2022-08-28T18:04:23.047Z,97746.00
2022-08-28T18:06:54.230Z,97745.00
2022-08-28T18:09:23.299Z,97758.00
2022-08-28T18:11:52.987Z,97769.00
2022-08-28T18:14:21.092Z,97774.00
2022-08-28T18:16:48.483Z,97775.00
2022-08-28T18:19:16.604Z,97771.00
2022-08-28T18:21:44.050Z,97769.00
2022-08-28T18:24:13.149Z,97772.00
2022-08-28T18:26:42.832Z,97776.00
2022-08-28T18:29:10.936Z,97773.00
2022-08-28T18:31:38.206Z,97775.00
2022-08-28T18:34:05.891Z,97779.00
2022-08-28T18:36:33.899Z,97777.00
2022-08-28T18:39:01.125Z,97788.00
2022-08-28T18:41:34.579Z,97788.00
2022-08-28T18:44:13.160Z,97789.00
2022-08-28T18:46:41.127Z,97788.00
2022-08-28T18:49:08.479Z,97792.00
2022-08-28T18:51:35.903Z,97786.00
2022-08-28T18:54:03.635Z,97791.00
2022-08-28T18:56:32.529Z,97790.00
2022-08-28T18:59:00.910Z,97787.00
2022-08-28T19:01:29.188Z,97794.00
2022-08-28T19:03:56.615Z,97791.00
2022-08-28T19:06:24.689Z,97794.00
2022-08-28T19:08:52.076Z,97791.00
2022-08-28T19:11:19.682Z,97792.00
2022-08-28T19:13:47.474Z,97796.00
2022-08-28T19:16:20.592Z,97799.00
2022-08-28T19:18:51.396Z,97802.00
2022-08-28T19:21:20.510Z,97798.00
2022-08-28T19:23:55.953Z,97805.00
2022-08-28T19:26:26.138Z,97804.00
2022-08-28T19:28:54.127Z,97813.00
2022-08-28T19:31:21.877Z,97806.00
2022-08-28T19:33:49.536Z,97802.00
2022-08-28T19:36:18.631Z,97802.00
2022-08-28T19:38:46.130Z,97812.00
2022-08-28T19:41:14.514Z,97805.00
2022-08-28T19:43:44.566Z,97813.00
2022-08-28T19:46:19.640Z,97815.00
2022-08-28T19:48:52.651Z,97817.00
2022-08-28T19:51:24.002Z,97812.00
2022-08-28T19:53:58.682Z,97816.00
2022-08-28T19:56:33.560Z,97817.00
2022-08-28T19:59:04.264Z,97816.00
2022-08-28T20:01:37.016Z,97818.00
2022-08-28T20:04:07.109Z,97825.00
2022-08-28T20:06:36.778Z,97821.00
2022-08-28T20:09:08.282Z,97819.00
2022-08-28T20:11:39.840Z,97829.00
2022-08-28T20:14:07.257Z,97826.00
2022-08-28T20:16:39.852Z,97827.00
2022-08-28T20:19:10.481Z,97834.00
2022-08-28T20:21:42.733Z,97834.00
2022-08-28T20:24:14.935Z,97837.00
2022-08-28T20:26:42.518Z,97838.00
2022-08-28T20:29:11.302Z,97835.00
2022-08-28T20:31:41.694Z,97839.00
2022-08-28T20:34:11.645Z,97836.00
2022-08-28T20:36:39.383Z,97836.00
2022-08-28T20:39:09.249Z,97835.00
2022-08-28T20:41:38.815Z,97836.00
2022-08-28T20:44:07.855Z,97842.00
2022-08-28T20:46:40.967Z,97833.00
2022-08-28T20:49:14.532Z,97833.00
2022-08-28T20:51:53.946Z,97820.00
2022-08-28T20:54:37.058Z,97826.00
2022-08-28T20:57:09.449Z,97826.00
2022-08-28T20:59:40.503Z,97829.00
2022-08-28T21:02:15.551Z,97826.00
2022-08-28T21:04:44.611Z,97826.00
2022-08-28T21:07:13.741Z,97824.00
2022-08-28T21:10:04.073Z,97834.00
2022-08-28T21:12:28.383Z,97830.00
2022-08-28T21:14:55.687Z,97822.00
2022-08-28T21:17:29.424Z,97829.00
2022-08-28T21:20:02.873Z,97830.00
2022-08-28T21:22:31.662Z,97828.00
2022-08-28T21:24:59.624Z,97835.00
2022-08-28T21:27:27.383Z,97829.00
2022-08-28T21:29:59.981Z,97843.00
2022-08-28T21:32:29.207Z,97838.00
2022-08-28T21:34:56.853Z,97839.00
2022-08-28T21:37:24.619Z,97837.00
2022-08-28T21:39:52.275Z,97844.00
2022-08-28T21:42:21.203Z,97844.00
2022-08-28T21:44:51.522Z,97845.00
2022-08-28T21:47:23.052Z,97843.00
2022-08-28T21:49:53.381Z,97846.00
2022-08-28T21:52:24.667Z,97849.00
2022-08-28T21:54:58.624Z,97848.00
2022-08-28T21:57:26.604Z,97846.00
2022-08-28T21:59:54.562Z,97851.00
2022-08-28T22:02:22.765Z,97854.00
2022-08-28T22:04:50.345Z,97861.00
2022-08-28T22:07:18.964Z,97863.00
2022-08-28T22:09:46.716Z,97862.00
2022-08-28T22:12:13.960Z,97867.00
2022-08-28T22:14:41.114Z,97869.00
2022-08-28T22:17:11.553Z,97867.00
2022-08-28T22:19:39.846Z,97874.00
2022-08-28T22:22:27.366Z,97881.00
2022-08-28T22:24:54.925Z,97877.00
2022-08-28T22:27:22.271Z,97876.00
2022-08-28T22:29:49.748Z,97876.00
2022-08-28T22:32:17.059Z,97870.00
2022-08-28T22:34:46.408Z,97878.00
2022-08-28T22:37:14.081Z,97882.00
2022-08-28T22:39:42.809Z,97882.00
2022-08-28T22:42:10.672Z,97884.00
2022-08-28T22:44:38.953Z,97880.00
2022-08-28T22:47:07.383Z,97875.00
2022-08-28T22:49:36.030Z,97882.00
2022-08-28T22:52:10.000Z,97878.00
2022-08-28T22:54:37.787Z,97875.00
2022-08-28T22:57:06.071Z,97885.00
2022-08-28T22:59:34.590Z,97884.00
2022-08-28T23:02:03.663Z,97885.00
2022-08-28T23:04:31.486Z,97883.00
2022-08-28T23:06:58.688Z,97882.00
2022-08-28T23:09:26.381Z,97882.00
2022-08-28T23:11:53.726Z,97881.00
2022-08-28T23:14:20.943Z,97879.00
2022-08-28T23:16:49.262Z,97881.00
2022-08-28T23:19:17.766Z,97871.00
2022-08-28T23:21:45.187Z,97867.00
2022-08-28T23:24:14.584Z,97862.00
2022-08-28T23:26:43.539Z,97868.00
2022-08-28T23:29:12.229Z,97868.00
2022-08-28T23:31:39.893Z,97866.00
2022-08-28T23:34:07.532Z,97862.00
2022-08-28T23:36:36.706Z,97870.00
2022-08-28T23:39:05.488Z,97857.00
2022-08-28T23:41:33.675Z,97860.00
2022-08-28T23:44:05.247Z,97863.00
2022-08-28T23:46:36.620Z,97862.00
2022-08-28T23:49:04.428Z,97855.00
2022-08-28T23:51:32.317Z,97849.00
2022-08-28T23:53:59.618Z,97861.00
2022-08-28T23:56:28.064Z,97854.00
2022-08-28T23:58:55.578Z,97847.00
